Wetterdaten: Jahr 2010
Datum Temp. A. Feuchte A. Luftdruck Regen Wind Richtung Taupunkt Windchill Windben
01.12.2010 -2,1 C 87 % 997,2 hPa 0,0 l/m 0,0 km/h O -4,0 C -2,1 C 0,0 km/h
02.12.2010 -2,6 C 79 % 1005,3 hPa 0,0 l/m 2,1 km/h W -6,0 C -3,6 C 1,1 km/h
03.12.2010 -5,8 C 86 % 1008,7 hPa 0,0 l/m 0,1 km/h O-SO -7,8 C -5,8 C 0,1 km/h
04.12.2010 -2,8 C 82 % 1017,1 hPa 0,4 l/m 2,6 km/h O-SO -5,6 C -3,6 C 1,4 km/h
05.12.2010 -1,0 C 85 % 1007,9 hPa 6,4 l/m 5,2 km/h S-SW -3,4 C -3,0 C 2,9 km/h
06.12.2010 0,9 C 87 % 997,0 hPa 13,6 l/m 0,1 km/h SO -1,1 C 0,9 C 0,0 km/h
07.12.2010 2,2 C 87 % 998,7 hPa 9,3 l/m 0,0 km/h W 0,3 C 2,2 C 0,0 km/h
08.12.2010 5,4 C 87 % 1000,2 hPa 2,8 l/m 1,6 km/h NO 3,4 C 5,0 C 0,9 km/h
09.12.2010 0,3 C 89 % 1022,6 hPa 1,1 l/m 5,0 km/h N -1,3 C -1,3 C 2,8 km/h
10.12.2010 0,8 C 88 % 1029,4 hPa 0,7 l/m 5,7 km/h W-SW -1,0 C -1,2 C 3,2 km/h
11.12.2010 3,5 C 87 % 1023,1 hPa 0,7 l/m 16,9 km/h W-SW 1,6 C -3,4 C 9,4 km/h
12.12.2010 3,0 C 88 % 1015,4 hPa 3,2 l/m 0,4 km/h SO 1,2 C 3,0 C 0,2 km/h
13.12.2010 -0,4 C 81 % 1019,0 hPa 0,0 l/m 0,5 km/h N-NO -3,5 C -0,4 C 0,3 km/h
14.12.2010 -3,5 C 86 % 1022,3 hPa 0,0 l/m 0,0 km/h N-NO -5,6 C -3,5 C 0,0 km/h
15.12.2010 -3,4 C 83 % 1025,1 hPa 0,0 l/m 3,8 km/h W-SW -5,8 C -4,4 C 2,1 km/h
16.12.2010 -3,0 C 82 % 1012,1 hPa 0,4 l/m 12,1 km/h N -5,8 C -8,2 C 6,8 km/h
17.12.2010 -0,8 C 87 % 994,5 hPa 0,0 l/m 9,3 km/h N-NO -2,8 C -4,7 C 5,2 km/h
18.12.2010 -2,2 C 81 % 999,0 hPa 0,0 l/m 9,3 km/h S-SW -5,0 C -6,6 C 5,2 km/h
19.12.2010 3,7 C 80 % 996,3 hPa 0,7 l/m 9,3 km/h S 0,6 C 0,3 C 5,2 km/h
20.12.2010 5,2 C 85 % 1001,3 hPa 7,5 l/m 13,4 km/h W-SW 2,8 C 0,8 C 7,4 km/h
21.12.2010 5,4 C 87 % 1002,6 hPa 1,4 l/m 0,1 km/h NO 3,4 C 5,4 C 0,1 km/h
22.12.2010 5,6 C 87 % 999,0 hPa 3,9 l/m 0,4 km/h SW 3,6 C 5,5 C 0,2 km/h
23.12.2010 4,3 C 86 % 994,9 hPa 0,0 l/m 0,5 km/h W-NW 2,2 C 4,3 C 0,3 km/h
24.12.2010 0,6 C 87 % 999,4 hPa 1,1 l/m 0,2 km/h W-NW -1,3 C 0,6 C 0,1 km/h
25.12.2010 -3,4 C 88 % 1015,1 hPa 0,0 l/m 0,1 km/h W-NW -5,1 C -3,4 C 0,0 km/h
26.12.2010 -8,4 C 86 % 1025,0 hPa 0,0 l/m 0,0 km/h SO -10,3 C -8,4 C 0,0 km/h
27.12.2010 -6,5 C 86 % 1022,2 hPa 0,0 l/m 0,0 km/h SO -8,4 C -6,5 C 0,0 km/h
28.12.2010 -1,7 C 88 % 1018,8 hPa 0,4 l/m 0,0 km/h SO -3,4 C -1,7 C 0,0 km/h
29.12.2010 0,7 C 87 % 1020,2 hPa 0,7 l/m 0,0 km/h NW -1,2 C 0,7 C 0,0 km/h
30.12.2010 0,3 C 87 % 1021,2 hPa 0,7 l/m 0,0 km/h W-NW -1,6 C 0,3 C 0,0 km/h
31.12.2010 0,2 C 87 % 1022,2 hPa 0,4 l/m 0,0 km/h W -1,7 C 0,2 C 0,0 km/h
Min-Datum 26.12.10 02.12.10 17.12.10 19 Tage 01.12.10 - 26.12.10 16.12.10 01.12.10
Min-Zeit 05:30 15:30 06:30 - 00:30 - 05:30 21:30 00:30
Minimum -15,6 C 53 % 989,5 hPa - 0,0 km/h - -17,1 C -16,4 C 0,0 km/h
Max-Datum 08.12.10 25.12.10 10.12.10 06.12.10 20.12.10 - 08.12.10 08.12.10 20.12.10
Max-Zeit 19:30 06:30 15:30 12:30 00:30 - 19:30 13:30 00:30
Maximum 12,9 C 90 % 1030,5 hPa 13,6 l/m 46,7 km/h
W-SW
- 10,4 C 11,9 C 25,9 km/h
W-SW
Durchschnitt -0,2 C 86 % 1010,7 hPa #55,2 l/m 3,2 km/h SO -2,3 C -1,4 C 1,8 km/h

Durchschnitt Minimum Temp.-3,2 C
Durchschnitt Maximum Temp.3,4 C